createdAt,value
2022-10-01T00:02:11.228Z,3.50
2022-10-01T00:04:39.905Z,3.50
2022-10-01T00:07:10.938Z,3.20
2022-10-01T00:09:39.324Z,3.77
2022-10-01T00:12:08.907Z,3.83
2022-10-01T00:14:39.522Z,3.77
2022-10-01T00:17:07.370Z,3.83
2022-10-01T00:19:35.401Z,4.20
2022-10-01T00:22:03.398Z,4.33
2022-10-01T00:24:31.187Z,4.33
2022-10-01T00:26:58.945Z,4.47
2022-10-01T00:29:26.667Z,4.07
2022-10-01T00:31:56.052Z,4.00
2022-10-01T00:34:23.888Z,4.63
2022-10-01T00:36:51.744Z,4.20
2022-10-01T00:39:19.497Z,4.10
2022-10-01T00:41:48.042Z,4.50
2022-10-01T00:44:34.605Z,4.83
2022-10-01T00:47:10.578Z,5.03
2022-10-01T00:49:40.064Z,4.77
2022-10-01T00:52:14.277Z,4.97
2022-10-01T00:54:46.585Z,5.33
2022-10-01T00:57:17.856Z,5.03
2022-10-01T00:59:47.081Z,4.47
2022-10-01T01:02:16.274Z,4.17
2022-10-01T01:04:44.874Z,4.70
2022-10-01T01:07:13.377Z,5.00
2022-10-01T01:09:44.465Z,4.67
2022-10-01T01:12:24.852Z,4.70
2022-10-01T01:15:02.960Z,4.43
2022-10-01T01:17:37.984Z,4.93
2022-10-01T01:20:27.152Z,5.03
2022-10-01T01:23:07.196Z,4.60
2022-10-01T01:25:42.388Z,4.80
2022-10-01T01:28:23.595Z,4.80
2022-10-01T01:30:54.259Z,4.87
2022-10-01T01:33:25.807Z,4.60
2022-10-01T01:35:58.200Z,5.17
2022-10-01T01:38:30.136Z,4.10
2022-10-01T01:41:01.604Z,4.90
2022-10-01T01:43:33.492Z,4.60
2022-10-01T01:46:03.431Z,5.30
2022-10-01T01:48:33.312Z,5.43
2022-10-01T01:51:06.024Z,5.40
2022-10-01T01:53:34.596Z,5.03
2022-10-01T01:56:02.796Z,4.63
2022-10-01T01:58:35.240Z,4.27
2022-10-01T02:01:03.982Z,4.63
2022-10-01T02:03:34.344Z,4.97
2022-10-01T02:06:13.039Z,5.13
2022-10-01T02:08:49.328Z,4.30
2022-10-01T02:11:24.948Z,4.70
2022-10-01T02:14:04.586Z,4.57
2022-10-01T02:16:39.742Z,4.70
2022-10-01T02:19:15.956Z,5.03
2022-10-01T02:21:55.669Z,4.73
2022-10-01T02:24:34.048Z,5.07
2022-10-01T02:27:04.714Z,4.63
2022-10-01T02:29:36.567Z,4.37
2022-10-01T02:32:04.446Z,4.93
2022-10-01T02:34:33.891Z,4.77
2022-10-01T02:37:05.140Z,5.10
2022-10-01T02:39:35.243Z,5.20
2022-10-01T02:42:07.637Z,5.03
2022-10-01T02:44:40.314Z,5.30
2022-10-01T02:47:13.369Z,4.73
2022-10-01T02:49:42.345Z,4.77
2022-10-01T02:52:17.916Z,5.27
2022-10-01T02:54:51.227Z,4.23
2022-10-01T02:57:26.954Z,4.60
2022-10-01T02:59:59.238Z,4.63
2022-10-01T03:02:27.957Z,5.67
2022-10-01T03:04:56.718Z,4.00
2022-10-01T03:07:25.422Z,4.27
2022-10-01T03:09:53.444Z,4.87
2022-10-01T03:12:21.860Z,4.53
2022-10-01T03:14:49.825Z,4.40
2022-10-01T03:17:19.684Z,4.10
2022-10-01T03:19:47.492Z,4.43
2022-10-01T03:22:18.191Z,4.73
2022-10-01T03:24:45.909Z,4.77
2022-10-01T03:27:13.774Z,4.00
2022-10-01T03:29:41.758Z,4.10
2022-10-01T03:32:09.534Z,4.07
2022-10-01T03:34:38.680Z,5.10
2022-10-01T03:37:06.739Z,4.60
2022-10-01T03:39:34.759Z,3.87
2022-10-01T03:42:02.532Z,4.30
2022-10-01T03:44:30.256Z,4.30
2022-10-01T03:46:58.174Z,4.30
2022-10-01T03:49:25.918Z,4.63
2022-10-01T03:51:55.259Z,3.80
2022-10-01T03:54:23.460Z,4.50
2022-10-01T03:56:52.321Z,4.20
2022-10-01T03:59:20.348Z,4.20
2022-10-01T04:01:48.241Z,3.90
2022-10-01T04:04:17.084Z,3.10
2022-10-01T04:06:44.969Z,3.30
2022-10-01T04:09:14.151Z,3.40
2022-10-01T04:11:41.969Z,2.83
2022-10-01T04:14:09.798Z,3.17
2022-10-01T04:16:37.602Z,2.77
2022-10-01T04:19:06.235Z,2.77
2022-10-01T04:21:34.270Z,2.97
2022-10-01T04:24:05.103Z,3.50
2022-10-01T04:26:34.276Z,3.03
2022-10-01T04:29:02.037Z,3.53
2022-10-01T04:31:34.817Z,3.20
2022-10-01T04:34:03.219Z,2.93
2022-10-01T04:36:31.090Z,2.73
2022-10-01T04:39:02.439Z,3.00
2022-10-01T04:41:31.806Z,2.87
2022-10-01T04:44:01.467Z,3.03
2022-10-01T04:46:30.438Z,2.90
2022-10-01T04:48:58.449Z,2.17
2022-10-01T04:51:26.246Z,2.97
2022-10-01T04:53:54.120Z,3.00
2022-10-01T04:56:21.892Z,3.00
2022-10-01T04:58:49.716Z,2.60
2022-10-01T05:01:18.849Z,2.93
2022-10-01T05:03:46.744Z,2.60
2022-10-01T05:06:14.666Z,2.70
2022-10-01T05:08:42.471Z,3.13
2022-10-01T05:11:10.237Z,2.47
2022-10-01T05:13:38.001Z,2.57
2022-10-01T05:16:06.094Z,2.53
2022-10-01T05:18:35.234Z,2.93
2022-10-01T05:21:05.902Z,2.60
2022-10-01T05:23:33.907Z,2.60
2022-10-01T05:26:02.590Z,2.30
2022-10-01T05:28:30.996Z,2.10
2022-10-01T05:31:00.495Z,2.30
2022-10-01T05:33:28.635Z,2.10
2022-10-01T05:35:57.902Z,2.20
2022-10-01T05:38:26.039Z,1.97
2022-10-01T05:40:53.831Z,2.00
2022-10-01T05:43:21.596Z,1.57
2022-10-01T05:45:49.873Z,1.90
2022-10-01T05:48:17.766Z,1.80
2022-10-01T05:50:46.666Z,2.00
2022-10-01T05:53:16.135Z,1.73
2022-10-01T05:55:44.171Z,2.20
2022-10-01T05:58:13.701Z,1.90
2022-10-01T06:00:43.334Z,1.80
2022-10-01T06:03:13.401Z,2.03
2022-10-01T06:05:41.258Z,1.80
2022-10-01T06:08:10.735Z,1.83
2022-10-01T06:10:40.618Z,2.07
2022-10-01T06:13:08.977Z,2.00
2022-10-01T06:15:39.526Z,1.93
2022-10-01T06:18:09.077Z,2.23
2022-10-01T06:20:37.021Z,1.80
2022-10-01T06:23:07.420Z,1.53
2022-10-01T06:25:36.474Z,1.20
2022-10-01T06:28:07.401Z,1.33
2022-10-01T06:30:36.884Z,0.63
2022-10-01T06:33:06.424Z,0.80
2022-10-01T06:35:35.144Z,0.97
2022-10-01T06:38:03.340Z,0.70
2022-10-01T06:40:31.936Z,0.70
2022-10-01T06:42:59.939Z,0.63
2022-10-01T06:45:30.457Z,0.60
2022-10-01T06:48:02.574Z,0.80
2022-10-01T06:50:31.355Z,0.70
2022-10-01T06:52:59.040Z,1.10
2022-10-01T06:55:29.085Z,1.00
2022-10-01T06:57:58.609Z,1.00
2022-10-01T07:00:26.778Z,0.80
2022-10-01T07:02:56.642Z,0.77
2022-10-01T07:05:25.381Z,0.90
2022-10-01T07:07:53.727Z,1.00
2022-10-01T07:10:23.275Z,1.40
2022-10-01T07:12:52.001Z,2.00
2022-10-01T07:15:22.830Z,2.30
2022-10-01T07:17:51.910Z,1.83
2022-10-01T07:20:22.231Z,1.20
2022-10-01T07:22:57.169Z,1.40
2022-10-01T07:25:25.606Z,1.07
2022-10-01T07:27:56.860Z,1.13
2022-10-01T07:30:24.995Z,1.10
2022-10-01T07:32:52.797Z,1.33
2022-10-01T07:35:22.466Z,1.07
2022-10-01T07:37:51.149Z,1.70
2022-10-01T07:40:19.637Z,1.50
2022-10-01T07:42:55.313Z,1.90
2022-10-01T07:45:23.694Z,1.60
2022-10-01T07:47:58.364Z,1.80
2022-10-01T07:50:30.501Z,2.13
2022-10-01T07:52:59.526Z,2.90
2022-10-01T07:55:32.856Z,3.00
2022-10-01T07:58:02.285Z,4.17
2022-10-01T08:00:32.928Z,4.53
2022-10-01T08:03:00.912Z,3.80
2022-10-01T08:05:33.908Z,2.20
2022-10-01T08:08:03.129Z,2.20
2022-10-01T08:10:34.466Z,2.30
2022-10-01T08:13:02.409Z,1.90
2022-10-01T08:15:30.349Z,2.20
2022-10-01T08:17:58.191Z,2.27
2022-10-01T08:20:26.021Z,3.07
2022-10-01T08:22:55.520Z,2.87
2022-10-01T08:25:23.300Z,3.37
2022-10-01T08:27:51.195Z,2.80
2022-10-01T08:30:19.138Z,2.90
2022-10-01T08:32:46.916Z,2.77
2022-10-01T08:35:16.821Z,2.30
2022-10-01T08:37:45.247Z,2.40
2022-10-01T08:40:14.633Z,2.50
2022-10-01T08:42:52.180Z,1.90
2022-10-01T08:45:26.517Z,1.90
2022-10-01T08:48:01.690Z,2.43
2022-10-01T08:50:37.462Z,1.80
2022-10-01T08:53:15.322Z,2.20
2022-10-01T08:55:46.479Z,1.90
2022-10-01T08:58:24.900Z,1.83
2022-10-01T09:00:53.025Z,2.30
2022-10-01T09:03:21.164Z,2.67
2022-10-01T09:06:13.293Z,1.97
2022-10-01T09:08:54.648Z,2.30
2022-10-01T09:11:46.785Z,2.80
2022-10-01T09:14:46.849Z,2.53
2022-10-01T09:17:24.550Z,2.53
2022-10-01T09:20:04.334Z,2.67
2022-10-01T09:22:39.873Z,2.87
2022-10-01T09:25:22.600Z,2.77
2022-10-01T09:27:52.735Z,2.80
2022-10-01T09:30:23.543Z,2.53
2022-10-01T09:32:57.309Z,2.60
2022-10-01T09:35:32.834Z,3.00
2022-10-01T09:38:04.748Z,2.70
2022-10-01T09:40:37.104Z,3.03
2022-10-01T09:43:08.763Z,3.17
2022-10-01T09:45:38.220Z,2.70
2022-10-01T09:48:19.890Z,2.80
2022-10-01T09:50:55.779Z,2.80
2022-10-01T09:53:30.766Z,3.10
2022-10-01T09:56:04.302Z,2.10
2022-10-01T09:58:37.886Z,2.40
2022-10-01T10:01:12.880Z,2.20
2022-10-01T10:03:40.748Z,2.43
2022-10-01T10:06:10.315Z,2.30
2022-10-01T10:08:40.638Z,2.20
2022-10-01T10:11:11.797Z,2.33
2022-10-01T10:13:44.648Z,2.73
2022-10-01T10:16:24.592Z,2.50
2022-10-01T10:18:53.497Z,2.43
2022-10-01T10:21:25.436Z,2.10
2022-10-01T10:23:55.338Z,2.53
2022-10-01T10:26:29.734Z,2.20
2022-10-01T10:29:01.814Z,2.70
2022-10-01T10:31:36.703Z,2.40
2022-10-01T10:34:09.381Z,1.70
2022-10-01T10:36:38.232Z,1.80
2022-10-01T10:39:08.198Z,2.40
2022-10-01T10:41:36.828Z,1.77
2022-10-01T10:44:09.081Z,1.60
2022-10-01T10:46:44.042Z,2.07
2022-10-01T10:49:21.938Z,1.97
2022-10-01T10:51:53.927Z,2.20
2022-10-01T10:54:25.427Z,2.30
2022-10-01T10:56:55.482Z,2.00
2022-10-01T10:59:25.170Z,2.07
2022-10-01T11:01:53.813Z,2.73
2022-10-01T11:04:28.886Z,1.87
2022-10-01T11:07:01.164Z,2.30
2022-10-01T11:09:40.251Z,1.90
2022-10-01T11:12:17.314Z,2.37
2022-10-01T11:14:57.742Z,2.70
2022-10-01T11:17:47.746Z,2.92
2022-10-01T11:20:32.437Z,2.60
2022-10-01T11:23:22.246Z,2.85
2022-10-01T11:25:58.891Z,2.73
2022-10-01T11:28:38.929Z,2.53
2022-10-01T11:31:16.920Z,2.80
2022-10-01T11:34:01.458Z,2.97
2022-10-01T11:36:37.175Z,2.28
2022-10-01T11:39:11.105Z,2.70
2022-10-01T11:41:44.115Z,2.50
2022-10-01T11:44:18.510Z,2.50
2022-10-01T11:46:54.467Z,2.97
2022-10-01T11:49:47.968Z,2.45
2022-10-01T11:52:33.337Z,2.55
2022-10-01T11:55:32.214Z,2.60
2022-10-01T11:58:24.440Z,2.97
2022-10-01T12:01:01.744Z,2.42
2022-10-01T12:03:37.815Z,2.03
2022-10-01T12:06:09.448Z,2.05
2022-10-01T12:08:39.910Z,2.20
2022-10-01T12:11:17.747Z,2.00
2022-10-01T12:13:53.109Z,2.00
2022-10-01T12:16:30.288Z,2.42
2022-10-01T12:19:04.331Z,2.70
2022-10-01T12:21:38.310Z,2.50
2022-10-01T12:24:12.838Z,2.47
2022-10-01T12:26:49.763Z,2.30
2022-10-01T12:29:25.125Z,2.55
2022-10-01T12:32:04.060Z,2.60
2022-10-01T12:34:49.317Z,2.05
2022-10-01T12:37:35.831Z,2.53
2022-10-01T12:40:19.625Z,1.95
2022-10-01T12:43:24.104Z,2.10
2022-10-01T12:45:57.322Z,2.15
2022-10-01T12:48:32.488Z,1.60
2022-10-01T12:51:22.318Z,1.60
2022-10-01T12:54:03.533Z,1.90
2022-10-01T12:56:37.966Z,1.90
2022-10-01T12:59:16.932Z,1.75
2022-10-01T13:02:00.231Z,3.30
2022-10-01T13:05:05.512Z,2.13
2022-10-01T13:07:50.244Z,1.63
2022-10-01T13:10:32.003Z,1.75
2022-10-01T13:13:06.453Z,1.98
2022-10-01T13:15:38.299Z,1.80
2022-10-01T13:18:22.071Z,1.50
2022-10-01T13:20:58.460Z,1.75
2022-10-01T13:23:36.196Z,1.67
2022-10-01T13:26:10.305Z,10.15
2022-10-01T13:28:53.949Z,2.30
2022-10-01T13:31:35.123Z,1.45
2022-10-01T13:34:03.358Z,1.52
2022-10-01T13:36:33.127Z,2.03
2022-10-01T13:39:03.145Z,1.60
2022-10-01T13:41:33.599Z,1.67
2022-10-01T13:44:16.365Z,1.50
2022-10-01T13:46:52.180Z,1.48
2022-10-01T13:49:28.790Z,1.40
2022-10-01T13:51:57.402Z,1.42
2022-10-01T13:54:29.026Z,1.73
2022-10-01T13:56:56.930Z,1.10
2022-10-01T13:59:34.480Z,1.10
2022-10-01T14:02:03.050Z,1.30
2022-10-01T14:04:37.601Z,1.60
2022-10-01T14:07:15.328Z,2.33
2022-10-01T14:09:47.183Z,1.60
2022-10-01T14:12:37.126Z,1.65
2022-10-01T14:15:34.370Z,1.98
2022-10-01T14:18:05.553Z,1.85
2022-10-01T14:20:37.343Z,1.58
2022-10-01T14:23:11.960Z,2.00
2022-10-01T14:25:53.642Z,2.30
2022-10-01T14:28:32.955Z,1.50
2022-10-01T14:31:08.413Z,2.00
2022-10-01T14:33:54.045Z,2.47
2022-10-01T14:36:29.500Z,1.77
2022-10-01T14:39:05.643Z,2.55
2022-10-01T14:41:36.279Z,1.80
2022-10-01T14:44:20.277Z,1.27
2022-10-01T14:46:48.112Z,1.30
2022-10-01T14:49:24.459Z,1.73
2022-10-01T14:51:56.185Z,1.42
2022-10-01T14:54:24.828Z,1.85
2022-10-01T14:56:54.929Z,1.63
2022-10-01T14:59:32.369Z,1.60
2022-10-01T15:02:02.942Z,1.63
2022-10-01T15:04:30.791Z,1.90
2022-10-01T15:07:05.425Z,1.60
2022-10-01T15:09:35.086Z,1.85
2022-10-01T15:12:07.033Z,1.25
2022-10-01T15:14:34.952Z,1.63
2022-10-01T15:17:05.034Z,1.30
2022-10-01T15:19:34.279Z,1.42
2022-10-01T15:22:03.683Z,1.75
2022-10-01T15:24:40.998Z,1.40
2022-10-01T15:27:12.257Z,1.30
2022-10-01T15:29:42.102Z,1.70
2022-10-01T15:32:11.717Z,1.40
2022-10-01T15:34:41.368Z,1.50
2022-10-01T15:37:18.469Z,1.40
2022-10-01T15:39:51.225Z,1.27
2022-10-01T15:42:26.785Z,1.40
2022-10-01T15:45:21.457Z,1.30
2022-10-01T15:47:51.782Z,1.67
2022-10-01T15:50:22.031Z,2.10
2022-10-01T15:52:55.552Z,1.67
2022-10-01T15:55:31.549Z,1.45
2022-10-01T15:58:07.034Z,1.40
2022-10-01T16:00:43.445Z,1.50
2022-10-01T16:03:23.320Z,1.90
2022-10-01T16:05:54.955Z,1.55
2022-10-01T16:08:25.767Z,1.50
2022-10-01T16:11:17.088Z,1.20
2022-10-01T16:13:48.818Z,1.73
2022-10-01T16:16:25.761Z,1.42
2022-10-01T16:18:56.315Z,1.75
2022-10-01T16:21:24.537Z,1.30
2022-10-01T16:23:53.541Z,1.50
2022-10-01T16:26:37.799Z,1.50
2022-10-01T16:29:19.661Z,1.73
2022-10-01T16:31:47.782Z,1.20
2022-10-01T16:34:18.318Z,1.90
2022-10-01T16:36:46.603Z,1.33
2022-10-01T16:39:15.390Z,1.35
2022-10-01T16:41:45.238Z,1.50
2022-10-01T16:44:15.155Z,1.30
2022-10-01T16:46:43.412Z,1.40
2022-10-01T16:49:15.100Z,1.60
2022-10-01T16:51:43.484Z,1.70
2022-10-01T16:54:21.845Z,1.35
2022-10-01T16:56:50.556Z,2.25
2022-10-01T16:59:22.747Z,2.70
2022-10-01T17:01:54.626Z,2.45
2022-10-01T17:04:23.754Z,2.42
2022-10-01T17:06:51.742Z,3.22
2022-10-01T17:09:19.530Z,2.70
2022-10-01T17:11:47.933Z,2.58
2022-10-01T17:14:17.993Z,2.70
2022-10-01T17:16:47.608Z,3.15
2022-10-01T17:19:15.857Z,2.00
2022-10-01T17:21:43.732Z,2.30
2022-10-01T17:24:11.548Z,1.80
2022-10-01T17:26:40.616Z,1.77
2022-10-01T17:29:09.165Z,2.03
2022-10-01T17:31:38.120Z,2.70
2022-10-01T17:34:08.353Z,1.80
2022-10-01T17:36:36.367Z,2.37
2022-10-01T17:39:04.808Z,2.20
2022-10-01T17:41:32.555Z,2.70
2022-10-01T17:44:00.346Z,2.53
2022-10-01T17:46:28.182Z,2.27
2022-10-01T17:48:55.980Z,3.07
2022-10-01T17:51:25.921Z,2.50
2022-10-01T17:53:54.929Z,2.77
2022-10-01T17:56:23.095Z,2.90
2022-10-01T17:58:50.972Z,3.37
2022-10-01T18:01:21.970Z,3.50
2022-10-01T18:03:53.835Z,3.83
2022-10-01T18:06:21.678Z,4.33
2022-10-01T18:08:55.451Z,4.60
2022-10-01T18:11:25.038Z,4.17
2022-10-01T18:13:53.302Z,3.20
2022-10-01T18:16:21.658Z,2.47
2022-10-01T18:19:51.924Z,2.40
2022-10-01T18:21:37.326Z,1.90
2022-10-01T18:24:07.054Z,1.60
2022-10-01T18:26:35.097Z,1.60
2022-10-01T18:29:03.691Z,1.70
2022-10-01T18:31:36.677Z,2.00
2022-10-01T18:34:13.397Z,1.80
2022-10-01T18:36:48.706Z,2.13
2022-10-01T18:39:24.883Z,2.10
2022-10-01T18:41:52.722Z,1.60
2022-10-01T18:44:21.577Z,2.17
2022-10-01T18:47:15.110Z,2.03
2022-10-01T18:49:59.833Z,2.20
2022-10-01T18:52:38.340Z,1.90
2022-10-01T18:55:30.525Z,2.10
2022-10-01T18:58:23.183Z,2.30
2022-10-01T19:01:01.882Z,2.07
2022-10-01T19:03:53.435Z,2.10
2022-10-01T19:06:40.706Z,2.10
2022-10-01T19:09:22.581Z,2.40
2022-10-01T19:12:00.899Z,2.37
2022-10-01T19:14:47.484Z,2.53
2022-10-01T19:17:32.493Z,2.33
2022-10-01T19:20:21.470Z,2.57
2022-10-01T19:23:03.955Z,2.27
2022-10-01T19:25:37.433Z,1.90
2022-10-01T19:28:18.161Z,2.40
2022-10-01T19:31:04.373Z,2.03
2022-10-01T19:33:36.820Z,2.53
2022-10-01T19:36:06.804Z,2.10
2022-10-01T19:38:38.550Z,2.40
2022-10-01T19:41:14.842Z,2.70
2022-10-01T19:43:51.771Z,1.93
2022-10-01T19:46:26.469Z,2.10
2022-10-01T19:49:00.647Z,2.43
2022-10-01T19:51:33.934Z,2.10
2022-10-01T19:54:03.536Z,1.97
2022-10-01T19:56:34.806Z,2.10
2022-10-01T19:59:08.607Z,2.00
2022-10-01T20:01:40.171Z,2.60
2022-10-01T20:04:15.832Z,2.77
2022-10-01T20:06:47.238Z,2.70
2022-10-01T20:09:27.026Z,2.67
2022-10-01T20:12:05.484Z,3.53
2022-10-01T20:15:05.331Z,3.93
2022-10-01T20:17:47.827Z,4.30
2022-10-01T20:20:23.453Z,3.20
2022-10-01T20:23:04.407Z,3.60
2022-10-01T20:25:42.247Z,3.27
2022-10-01T20:28:20.421Z,2.47
2022-10-01T20:30:59.141Z,2.47
2022-10-01T20:33:37.517Z,2.80
2022-10-01T20:36:12.679Z,2.23
2022-10-01T20:38:47.134Z,2.93
2022-10-01T20:41:18.175Z,2.53
2022-10-01T20:43:49.411Z,2.50
2022-10-01T20:46:34.797Z,2.43
2022-10-01T20:49:05.584Z,2.70
2022-10-01T20:51:37.172Z,2.60
2022-10-01T20:54:12.437Z,2.60
2022-10-01T20:56:43.185Z,2.60
2022-10-01T20:59:19.201Z,2.53
2022-10-01T21:02:02.525Z,2.70
2022-10-01T21:04:34.348Z,2.20
2022-10-01T21:07:21.162Z,2.90
2022-10-01T21:09:54.176Z,2.73
2022-10-01T21:12:28.067Z,2.40
2022-10-01T21:14:57.026Z,2.60
2022-10-01T21:17:44.176Z,2.20
2022-10-01T21:20:45.138Z,2.80
2022-10-01T21:23:26.493Z,2.40
2022-10-01T21:26:06.409Z,2.70
2022-10-01T21:28:52.868Z,2.33
2022-10-01T21:31:35.430Z,2.90
2022-10-01T21:34:12.942Z,2.63
2022-10-01T21:36:57.106Z,2.40
2022-10-01T21:39:33.003Z,2.70
2022-10-01T21:42:15.014Z,2.67
2022-10-01T21:45:08.214Z,3.43
2022-10-01T21:47:50.600Z,2.57
2022-10-01T21:50:35.077Z,3.10
2022-10-01T21:53:39.028Z,2.90
2022-10-01T21:56:20.479Z,2.70
2022-10-01T21:59:01.381Z,2.80
2022-10-01T22:01:46.312Z,3.50
2022-10-01T22:04:20.906Z,3.13
2022-10-01T22:06:54.266Z,3.37
2022-10-01T22:09:34.309Z,3.17
2022-10-01T22:12:06.091Z,2.73
2022-10-01T22:14:34.407Z,3.60
2022-10-01T22:17:08.670Z,3.60
2022-10-01T22:19:40.045Z,3.50
2022-10-01T22:22:13.089Z,3.67
2022-10-01T22:24:47.382Z,2.83
2022-10-01T22:27:21.211Z,2.83
2022-10-01T22:29:55.692Z,3.90
2022-10-01T22:32:27.013Z,3.47
2022-10-01T22:35:00.387Z,2.90
2022-10-01T22:37:38.501Z,3.17
2022-10-01T22:40:13.335Z,3.67
2022-10-01T22:42:45.242Z,3.20
2022-10-01T22:45:17.515Z,3.37
2022-10-01T22:48:02.785Z,3.33
2022-10-01T22:50:43.445Z,3.27
2022-10-01T22:53:28.440Z,2.80
2022-10-01T22:55:57.986Z,3.20
2022-10-01T22:58:36.702Z,2.93
2022-10-01T23:01:15.576Z,3.00
2022-10-01T23:04:07.305Z,2.80
2022-10-01T23:06:42.143Z,2.73
2022-10-01T23:09:16.852Z,2.53
2022-10-01T23:11:57.624Z,2.97
2022-10-01T23:14:42.798Z,3.10
2022-10-01T23:17:14.965Z,3.03
2022-10-01T23:19:59.007Z,3.07
2022-10-01T23:22:42.570Z,3.27
2022-10-01T23:25:20.641Z,3.10
2022-10-01T23:28:07.031Z,3.30
2022-10-01T23:30:47.933Z,3.70
2022-10-01T23:33:33.447Z,3.40
2022-10-01T23:36:10.235Z,3.07
2022-10-01T23:38:57.801Z,2.97
2022-10-01T23:41:33.990Z,3.37
2022-10-01T23:44:09.107Z,2.93
2022-10-01T23:46:40.975Z,3.33
2022-10-01T23:49:15.426Z,3.17
2022-10-01T23:51:49.512Z,3.87
2022-10-01T23:54:24.902Z,2.77
2022-10-01T23:56:57.969Z,3.57
2022-10-01T23:59:30.012Z,3.40
